sensor_id;sensor_type;location;lat;lon;timestamp;pressure;altitude;pressure_sealevel;temperature;humidity
40155;BME280;25875;48.202;16.334;2023-02-10T00:00:52;100996.00;;;-1.24;50.64
40155;BME280;25875;48.202;16.334;2023-02-10T00:03:19;100995.09;;;-1.26;50.70
40155;BME280;25875;48.202;16.334;2023-02-10T00:05:45;100999.38;;;-1.28;50.75
40155;BME280;25875;48.202;16.334;2023-02-10T00:08:13;100994.19;;;-1.28;50.98
40155;BME280;25875;48.202;16.334;2023-02-10T00:10:40;100990.66;;;-1.30;50.84
40155;BME280;25875;48.202;16.334;2023-02-10T00:13:07;100998.47;;;-1.30;50.82
40155;BME280;25875;48.202;16.334;2023-02-10T00:15:34;100996.69;;;-1.33;50.77
40155;BME280;25875;48.202;16.334;2023-02-10T00:18:03;100966.84;;;-1.53;50.91
40155;BME280;25875;48.202;16.334;2023-02-10T00:20:29;100994.91;;;-1.35;50.91
40155;BME280;25875;48.202;16.334;2023-02-10T00:22:56;100989.75;;;-1.34;50.87
40155;BME280;25875;48.202;16.334;2023-02-10T00:25:24;100993.16;;;-1.36;51.14
40155;BME280;25875;48.202;16.334;2023-02-10T00:27:51;100995.69;;;-1.39;51.15
40155;BME280;25875;48.202;16.334;2023-02-10T00:30:18;100991.38;;;-1.39;51.20
40155;BME280;25875;48.202;16.334;2023-02-10T00:32:44;100993.94;;;-1.40;51.29
40155;BME280;25875;48.202;16.334;2023-02-10T00:35:11;100992.22;;;-1.40;51.34
40155;BME280;25875;48.202;16.334;2023-02-10T00:37:38;100993.94;;;-1.40;51.71
40155;BME280;25875;48.202;16.334;2023-02-10T00:40:05;101004.16;;;-1.49;51.89
40155;BME280;25875;48.202;16.334;2023-02-10T00:42:33;101004.06;;;-1.55;52.23
40155;BME280;25875;48.202;16.334;2023-02-10T00:45:00;101002.25;;;-1.58;52.27
40155;BME280;25875;48.202;16.334;2023-02-10T00:47:27;100996.22;;;-1.57;52.23
40155;BME280;25875;48.202;16.334;2023-02-10T00:49:53;100968.13;;;-1.75;52.26
40155;BME280;25875;48.202;16.334;2023-02-10T00:52:20;100998.81;;;-1.57;52.18
40155;BME280;25875;48.202;16.334;2023-02-10T00:54:47;101002.25;;;-1.58;52.28
40155;BME280;25875;48.202;16.334;2023-02-10T00:57:14;100993.59;;;-1.58;52.44
40155;BME280;25875;48.202;16.334;2023-02-10T00:59:42;100996.19;;;-1.58;52.31
40155;BME280;25875;48.202;16.334;2023-02-10T01:02:09;101001.38;;;-1.58;52.44
40155;BME280;25875;48.202;16.334;2023-02-10T01:04:36;101007.44;;;-1.59;52.45
40155;BME280;25875;48.202;16.334;2023-02-10T01:07:03;101001.38;;;-1.58;52.53
40155;BME280;25875;48.202;16.334;2023-02-10T01:09:30;101009.97;;;-1.62;52.71
40155;BME280;25875;48.202;16.334;2023-02-10T01:11:57;101001.25;;;-1.65;52.81
40155;BME280;25875;48.202;16.334;2023-02-10T01:14:24;101006.47;;;-1.65;52.87
40155;BME280;25875;48.202;16.334;2023-02-10T01:16:53;101001.22;;;-1.66;52.84
40155;BME280;25875;48.202;16.334;2023-02-10T01:19:20;101001.19;;;-1.68;52.74
40155;BME280;25875;48.202;16.334;2023-02-10T01:21:46;100996.81;;;-1.70;52.97
40155;BME280;25875;48.202;16.334;2023-02-10T01:24:13;100996.78;;;-1.72;53.01
40155;BME280;25875;48.202;16.334;2023-02-10T01:26:40;100995.94;;;-1.71;52.99
40155;BME280;25875;48.202;16.334;2023-02-10T01:29:06;100994.19;;;-1.72;53.05
40155;BME280;25875;48.202;16.334;2023-02-10T01:31:33;100996.78;;;-1.72;53.08
40155;BME280;25875;48.202;16.334;2023-02-10T01:34:01;100998.44;;;-1.75;53.32
40155;BME280;25875;48.202;16.334;2023-02-10T01:36:28;101000.16;;;-1.76;53.13
40155;BME280;25875;48.202;16.334;2023-02-10T01:38:55;101000.16;;;-1.76;53.16
40155;BME280;25875;48.202;16.334;2023-02-10T01:41:23;100994.91;;;-1.79;53.15
40155;BME280;25875;48.202;16.334;2023-02-10T01:43:59;101002.59;;;-1.83;53.57
40155;BME280;25875;48.202;16.334;2023-02-10T01:46:27;100992.22;;;-1.83;53.25
40155;BME280;25875;48.202;16.334;2023-02-10T01:48:55;100999.97;;;-1.85;53.22
40155;BME280;25875;48.202;16.334;2023-02-10T01:51:30;101000.75;;;-1.89;53.58
40155;BME280;25875;48.202;16.334;2023-02-10T01:53:58;100990.28;;;-1.92;53.32
40155;BME280;25875;48.202;16.334;2023-02-10T01:56:26;100985.88;;;-1.96;53.44
40155;BME280;25875;48.202;16.334;2023-02-10T01:58:52;100981.56;;;-1.95;53.60
40155;BME280;25875;48.202;16.334;2023-02-10T02:01:19;100985.88;;;-1.96;53.37
40155;BME280;25875;48.202;16.334;2023-02-10T02:03:46;100984.13;;;-1.97;53.46
40155;BME280;25875;48.202;16.334;2023-02-10T02:06:13;100978.94;;;-1.97;53.59
40155;BME280;25875;48.202;16.334;2023-02-10T02:08:41;100977.97;;;-2.01;53.48
40155;BME280;25875;48.202;16.334;2023-02-10T02:11:17;100974.34;;;-2.09;54.20
40155;BME280;25875;48.202;16.334;2023-02-10T02:14:17;100977.66;;;-2.16;54.92
40155;BME280;25875;48.202;16.334;2023-02-10T02:17:02;100970.69;;;-2.17;54.42
40155;BME280;25875;48.202;16.334;2023-02-10T02:23:06;100962.06;;;-2.16;54.45
40155;BME280;25875;48.202;16.334;2023-02-10T02:28:34;100968.13;;;-2.15;54.20
40155;BME280;25875;48.202;16.334;2023-02-10T02:31:38;100971.63;;;-2.15;54.29
40155;BME280;25875;48.202;16.334;2023-02-10T02:34:12;100971.50;;;-2.19;54.00
40155;BME280;25875;48.202;16.334;2023-02-10T02:36:44;100968.88;;;-2.21;53.83
40155;BME280;25875;48.202;16.334;2023-02-10T02:39:14;100968.03;;;-2.20;53.83
40155;BME280;25875;48.202;16.334;2023-02-10T02:41:41;100969.84;;;-2.17;53.21
40155;BME280;25875;48.202;16.334;2023-02-10T02:44:07;100971.50;;;-2.19;53.56
40155;BME280;25875;48.202;16.334;2023-02-10T02:46:42;100967.13;;;-2.22;53.78
40155;BME280;25875;48.202;16.334;2023-02-10T02:49:18;100981.88;;;-2.21;53.88
40155;BME280;25875;48.202;16.334;2023-02-10T02:51:49;100973.94;;;-2.27;54.65
40155;BME280;25875;48.202;16.334;2023-02-10T02:54:22;100986.09;;;-2.26;53.75
40155;BME280;25875;48.202;16.334;2023-02-10T02:56:56;100986.09;;;-2.26;53.83
40155;BME280;25875;48.202;16.334;2023-02-10T02:59:32;100985.22;;;-2.26;53.73
40155;BME280;25875;48.202;16.334;2023-02-10T03:02:05;100989.53;;;-2.27;53.81
40155;BME280;25875;48.202;16.334;2023-02-10T03:04:34;100992.13;;;-2.27;53.73
40155;BME280;25875;48.202;16.334;2023-02-10T03:07:01;100999.00;;;-2.29;53.54
40155;BME280;25875;48.202;16.334;2023-02-10T03:09:29;100998.94;;;-2.32;53.84
40155;BME280;25875;48.202;16.334;2023-02-10T03:11:56;101001.56;;;-2.31;53.77
40155;BME280;25875;48.202;16.334;2023-02-10T03:14:23;101007.59;;;-2.32;53.80
40155;BME280;25875;48.202;16.334;2023-02-10T03:16:50;101002.34;;;-2.35;53.53
40155;BME280;25875;48.202;16.334;2023-02-10T03:19:18;101009.28;;;-2.34;53.67
40155;BME280;25875;48.202;16.334;2023-02-10T03:21:45;101005.78;;;-2.36;53.68
40155;BME280;25875;48.202;16.334;2023-02-10T03:24:13;101010.97;;;-2.36;53.64
40155;BME280;25875;48.202;16.334;2023-02-10T03:26:40;101004.94;;;-2.35;53.62
40155;BME280;25875;48.202;16.334;2023-02-10T03:29:07;101017.03;;;-2.35;53.54
40155;BME280;25875;48.202;16.334;2023-02-10T03:31:33;101017.88;;;-2.36;53.45
40155;BME280;25875;48.202;16.334;2023-02-10T03:34:00;101018.72;;;-2.37;53.58
40155;BME280;25875;48.202;16.334;2023-02-10T03:36:28;101014.31;;;-2.41;54.04
40155;BME280;25875;48.202;16.334;2023-02-10T03:38:56;100907.25;;;-3.05;53.92
40155;BME280;25875;48.202;16.334;2023-02-10T03:41:22;101013.47;;;-2.40;53.90
40155;BME280;25875;48.202;16.334;2023-02-10T03:43:49;101016.03;;;-2.42;54.07
40155;BME280;25875;48.202;16.334;2023-02-10T03:46:16;101012.38;;;-2.50;54.27
40155;BME280;25875;48.202;16.334;2023-02-10T03:48:42;101020.97;;;-2.52;54.57
40155;BME280;25875;48.202;16.334;2023-02-10T03:51:09;101021.00;;;-2.51;54.43
40155;BME280;25875;48.202;16.334;2023-02-10T03:53:38;101022.72;;;-2.51;54.19
40155;BME280;25875;48.202;16.334;2023-02-10T03:56:05;101030.50;;;-2.51;54.23
40155;BME280;25875;48.202;16.334;2023-02-10T03:58:32;101027.03;;;-2.52;54.29
40155;BME280;25875;48.202;16.334;2023-02-10T04:00:59;101033.91;;;-2.54;54.34
40155;BME280;25875;48.202;16.334;2023-02-10T04:03:26;101028.63;;;-2.57;54.37
40155;BME280;25875;48.202;16.334;2023-02-10T04:05:52;101003.16;;;-2.73;54.60
40155;BME280;25875;48.202;16.334;2023-02-10T04:08:19;101025.97;;;-2.60;54.50
40155;BME280;25875;48.202;16.334;2023-02-10T04:10:47;101029.47;;;-2.58;54.54
40155;BME280;25875;48.202;16.334;2023-02-10T04:13:14;101026.00;;;-2.58;54.25
40155;BME280;25875;48.202;16.334;2023-02-10T04:15:40;101024.25;;;-2.59;54.34
40155;BME280;25875;48.202;16.334;2023-02-10T04:18:07;101028.63;;;-2.57;54.47
40155;BME280;25875;48.202;16.334;2023-02-10T04:20:34;101026.91;;;-2.56;54.49
40155;BME280;25875;48.202;16.334;2023-02-10T04:23:01;101026.91;;;-2.56;54.32
40155;BME280;25875;48.202;16.334;2023-02-10T04:25:27;101032.03;;;-2.59;54.69
40155;BME280;25875;48.202;16.334;2023-02-10T04:27:56;101037.22;;;-2.59;54.59
40155;BME280;25875;48.202;16.334;2023-02-10T04:30:22;101027.69;;;-2.60;54.59
40155;BME280;25875;48.202;16.334;2023-02-10T04:32:49;101036.34;;;-2.60;54.70
40155;BME280;25875;48.202;16.334;2023-02-10T04:35:16;101026.81;;;-2.61;54.70
40155;BME280;25875;48.202;16.334;2023-02-10T04:37:42;101040.59;;;-2.64;54.87
40155;BME280;25875;48.202;16.334;2023-02-10T04:40:10;101038.88;;;-2.63;54.88
40155;BME280;25875;48.202;16.334;2023-02-10T04:42:36;101038.81;;;-2.65;54.79
40155;BME280;25875;48.202;16.334;2023-02-10T04:45:06;101036.22;;;-2.65;54.97
40155;BME280;25875;48.202;16.334;2023-02-10T04:47:33;101038.78;;;-2.66;54.92
40155;BME280;25875;48.202;16.334;2023-02-10T04:49:59;101008.03;;;-2.85;55.06
40155;BME280;25875;48.202;16.334;2023-02-10T04:52:26;101037.94;;;-2.65;54.95
40155;BME280;25875;48.202;16.334;2023-02-10T04:54:53;101039.63;;;-2.67;54.94
40155;BME280;25875;48.202;16.334;2023-02-10T04:57:20;101052.59;;;-2.67;55.07
40155;BME280;25875;48.202;16.334;2023-02-10T04:59:46;100880.69;;;-3.62;55.04
40155;BME280;25875;48.202;16.334;2023-02-10T05:02:14;101050.94;;;-2.65;55.01
40155;BME280;25875;48.202;16.334;2023-02-10T05:04:41;101048.34;;;-2.65;55.03
40155;BME280;25875;48.202;16.334;2023-02-10T05:07:08;101048.34;;;-2.65;54.89
40155;BME280;25875;48.202;16.334;2023-02-10T05:09:35;101045.63;;;-2.70;55.10
40155;BME280;25875;48.202;16.334;2023-02-10T05:12:01;101044.75;;;-2.70;55.21
40155;BME280;25875;48.202;16.334;2023-02-10T05:14:28;101051.63;;;-2.72;55.04
40155;BME280;25875;48.202;16.334;2023-02-10T05:16:55;101048.19;;;-2.71;55.35
40155;BME280;25875;48.202;16.334;2023-02-10T05:19:23;101019.13;;;-2.91;55.47
40155;BME280;25875;48.202;16.334;2023-02-10T05:21:50;101055.03;;;-2.73;55.37
40155;BME280;25875;48.202;16.334;2023-02-10T05:24:17;101069.78;;;-2.72;55.55
40155;BME280;25875;48.202;16.334;2023-02-10T05:26:44;101063.75;;;-2.71;55.56
40155;BME280;25875;48.202;16.334;2023-02-10T05:29:10;101068.03;;;-2.73;55.54
40155;BME280;25875;48.202;16.334;2023-02-10T05:31:37;101065.38;;;-2.75;55.69
40155;BME280;25875;48.202;16.334;2023-02-10T05:34:04;101065.34;;;-2.76;56.07
40155;BME280;25875;48.202;16.334;2023-02-10T05:36:32;101070.47;;;-2.79;56.03
40155;BME280;25875;48.202;16.334;2023-02-10T05:38:59;100868.53;;;-3.96;56.13
40155;BME280;25875;48.202;16.334;2023-02-10T05:41:43;101074.78;;;-2.80;56.33
40155;BME280;25875;48.202;16.334;2023-02-10T05:44:09;101072.19;;;-2.80;56.17
40155;BME280;25875;48.202;16.334;2023-02-10T05:46:36;101078.25;;;-2.79;56.23
40155;BME280;25875;48.202;16.334;2023-02-10T05:49:03;101077.38;;;-2.80;56.71
40155;BME280;25875;48.202;16.334;2023-02-10T05:51:31;101081.69;;;-2.80;56.45
40155;BME280;25875;48.202;16.334;2023-02-10T05:53:58;101078.25;;;-2.79;56.22
40155;BME280;25875;48.202;16.334;2023-02-10T05:56:25;101086.09;;;-2.76;56.43
40155;BME280;25875;48.202;16.334;2023-02-10T05:58:52;101082.75;;;-2.72;56.18
40155;BME280;25875;48.202;16.334;2023-02-10T06:01:18;101095.63;;;-2.77;56.27
40155;BME280;25875;48.202;16.334;2023-02-10T06:03:45;101094.72;;;-2.77;56.47
40155;BME280;25875;48.202;16.334;2023-02-10T06:06:12;101101.59;;;-2.79;56.31
40155;BME280;25875;48.202;16.334;2023-02-10T06:08:41;101106.78;;;-2.79;56.54
40155;BME280;25875;48.202;16.334;2023-02-10T06:11:08;101104.28;;;-2.76;56.42
40155;BME280;25875;48.202;16.334;2023-02-10T06:13:35;101113.78;;;-2.77;56.64
40155;BME280;25875;48.202;16.334;2023-02-10T06:16:01;101118.94;;;-2.78;56.45
40155;BME280;25875;48.202;16.334;2023-02-10T06:18:28;101111.97;;;-2.79;56.58
40155;BME280;25875;48.202;16.334;2023-02-10T06:20:55;101113.75;;;-2.78;56.46
40155;BME280;25875;48.202;16.334;2023-02-10T06:23:22;101125.88;;;-2.77;56.55
40155;BME280;25875;48.202;16.334;2023-02-10T06:25:50;101057.97;;;-3.25;56.43
40155;BME280;25875;48.202;16.334;2023-02-10T06:28:20;101129.38;;;-2.75;56.51
40155;BME280;25875;48.202;16.334;2023-02-10T06:30:46;101134.59;;;-2.75;56.44
40155;BME280;25875;48.202;16.334;2023-02-10T06:33:13;101132.88;;;-2.75;56.46
40155;BME280;25875;48.202;16.334;2023-02-10T06:35:40;101134.66;;;-2.72;56.65
40155;BME280;25875;48.202;16.334;2023-02-10T06:38:07;101132.91;;;-2.73;56.74
40155;BME280;25875;48.202;16.334;2023-02-10T06:40:34;101127.63;;;-2.76;56.87
40155;BME280;25875;48.202;16.334;2023-02-10T06:43:02;101136.34;;;-2.74;56.79
40155;BME280;25875;48.202;16.334;2023-02-10T06:45:29;101132.94;;;-2.72;56.83
40155;BME280;25875;48.202;16.334;2023-02-10T06:47:55;101139.00;;;-2.71;56.81
40155;BME280;25875;48.202;16.334;2023-02-10T06:50:22;101138.19;;;-2.70;56.86
40155;BME280;25875;48.202;16.334;2023-02-10T06:52:49;101001.16;;;-3.49;56.75
40155;BME280;25875;48.202;16.334;2023-02-10T06:55:16;101150.47;;;-2.63;56.76
40155;BME280;25875;48.202;16.334;2023-02-10T06:57:43;101143.78;;;-2.55;56.58
40155;BME280;25875;48.202;16.334;2023-02-10T07:00:13;101148.22;;;-2.51;56.56
40155;BME280;25875;48.202;16.334;2023-02-10T07:02:40;101153.53;;;-2.46;55.89
40155;BME280;25875;48.202;16.334;2023-02-10T07:05:09;101162.31;;;-2.41;56.01
40155;BME280;25875;48.202;16.334;2023-02-10T07:07:37;101151.31;;;-2.31;55.85
40155;BME280;25875;48.202;16.334;2023-02-10T07:10:05;101159.31;;;-2.23;55.79
40155;BME280;25875;48.202;16.334;2023-02-10T07:12:31;101159.44;;;-2.17;55.61
40155;BME280;25875;48.202;16.334;2023-02-10T07:14:58;101106.31;;;-2.65;55.40
40155;BME280;25875;48.202;16.334;2023-02-10T07:17:26;101159.63;;;-2.10;55.50
40155;BME280;25875;48.202;16.334;2023-02-10T07:19:53;101162.44;;;-2.02;55.22
40155;BME280;25875;48.202;16.334;2023-02-10T07:22:20;101171.31;;;-1.92;55.27
40155;BME280;25875;48.202;16.334;2023-02-10T07:24:47;101160.41;;;-1.78;54.88
40155;BME280;25875;48.202;16.334;2023-02-10T07:27:14;101149.41;;;-1.66;54.81
40155;BME280;25875;48.202;16.334;2023-02-10T07:29:41;101142.72;;;-1.56;54.53
40155;BME280;25875;48.202;16.334;2023-02-10T07:32:07;101157.91;;;-1.36;54.63
40155;BME280;25875;48.202;16.334;2023-02-10T07:34:36;101153.06;;;-1.19;54.52
40155;BME280;25875;48.202;16.334;2023-02-10T07:37:02;101153.44;;;-1.01;54.49
40155;BME280;25875;48.202;16.334;2023-02-10T07:39:29;101147.78;;;-0.81;54.02
40155;BME280;25875;48.202;16.334;2023-02-10T07:41:56;101155.13;;;-0.60;53.80
40155;BME280;25875;48.202;16.334;2023-02-10T07:44:23;101160.66;;;-0.42;53.29
40155;BME280;25875;48.202;16.334;2023-02-10T07:46:51;101160.13;;;-0.23;53.26
40155;BME280;25875;48.202;16.334;2023-02-10T07:49:17;101116.56;;;-0.31;52.74
40155;BME280;25875;48.202;16.334;2023-02-10T07:51:46;101145.97;;;0.14;52.24
40155;BME280;25875;48.202;16.334;2023-02-10T07:54:12;101147.09;;;0.30;52.00
40155;BME280;25875;48.202;16.334;2023-02-10T07:56:39;101148.19;;;0.46;51.99
40155;BME280;25875;48.202;16.334;2023-02-10T07:59:06;101154.50;;;0.63;51.65
40155;BME280;25875;48.202;16.334;2023-02-10T08:01:32;101159.06;;;0.78;51.76
40155;BME280;25875;48.202;16.334;2023-02-10T08:04:01;101168.00;;;0.97;51.33
40155;BME280;25875;48.202;16.334;2023-02-10T08:06:28;101164.72;;;1.11;51.07
40155;BME280;25875;48.202;16.334;2023-02-10T08:08:56;101170.97;;;1.27;50.90
40155;BME280;25875;48.202;16.334;2023-02-10T08:11:23;101175.47;;;1.39;50.83
40155;BME280;25875;48.202;16.334;2023-02-10T08:13:50;101176.50;;;1.53;50.45
40155;BME280;25875;48.202;16.334;2023-02-10T08:16:17;101185.34;;;1.63;50.57
40155;BME280;25875;48.202;16.334;2023-02-10T08:18:44;101182.84;;;1.75;50.32
40155;BME280;25875;48.202;16.334;2023-02-10T08:21:10;101179.50;;;1.89;50.18
40155;BME280;25875;48.202;16.334;2023-02-10T08:23:37;101153.38;;;1.91;49.93
40155;BME280;25875;48.202;16.334;2023-02-10T08:26:07;101185.00;;;2.20;49.79
40155;BME280;25875;48.202;16.334;2023-02-10T08:28:36;101024.72;;;1.29;49.54
40155;BME280;25875;48.202;16.334;2023-02-10T08:31:05;101116.00;;;2.04;49.31
40155;BME280;25875;48.202;16.334;2023-02-10T08:33:34;101156.38;;;2.41;49.26
40155;BME280;25875;48.202;16.334;2023-02-10T08:36:04;101180.09;;;2.70;48.75
40155;BME280;25875;48.202;16.334;2023-02-10T08:38:31;101175.78;;;2.81;49.09
40155;BME280;25875;48.202;16.334;2023-02-10T08:40:58;101176.75;;;2.96;49.18
40155;BME280;25875;48.202;16.334;2023-02-10T08:43:27;101177.69;;;3.10;48.79
40155;BME280;25875;48.202;16.334;2023-02-10T08:45:55;101140.09;;;2.97;48.87
40155;BME280;25875;48.202;16.334;2023-02-10T08:48:22;101177.78;;;3.36;48.34
40155;BME280;25875;48.202;16.334;2023-02-10T08:50:48;100773.84;;;1.07;48.41
40155;BME280;25875;48.202;16.334;2023-02-10T08:53:15;101176.94;;;3.53;48.16
40155;BME280;25875;48.202;16.334;2023-02-10T08:55:42;101174.34;;;3.66;47.65
40155;BME280;25875;48.202;16.334;2023-02-10T08:58:09;101176.13;;;3.79;47.72
40155;BME280;25875;48.202;16.334;2023-02-10T09:00:37;101174.38;;;3.93;47.56
40155;BME280;25875;48.202;16.334;2023-02-10T09:03:04;101166.53;;;4.04;47.56
40155;BME280;25875;48.202;16.334;2023-02-10T09:05:34;101169.16;;;4.17;47.17
40155;BME280;25875;48.202;16.334;2023-02-10T09:08:01;101158.66;;;4.34;47.30
40155;BME280;25875;48.202;16.334;2023-02-10T09:10:29;101168.28;;;4.52;47.17
40155;BME280;25875;48.202;16.334;2023-02-10T09:12:56;101171.75;;;4.65;47.00
40155;BME280;25875;48.202;16.334;2023-02-10T09:15:22;101166.47;;;4.75;46.66
40155;BME280;25875;48.202;16.334;2023-02-10T09:17:51;101161.19;;;4.83;46.56
40155;BME280;25875;48.202;16.334;2023-02-10T09:20:17;101169.94;;;4.93;46.37
40155;BME280;25875;48.202;16.334;2023-02-10T09:22:44;101171.66;;;5.03;46.31
40155;BME280;25875;48.202;16.334;2023-02-10T09:25:13;101180.41;;;5.09;46.09
40155;BME280;25875;48.202;16.334;2023-02-10T09:27:40;101149.78;;;4.89;45.89
40155;BME280;25875;48.202;16.334;2023-02-10T09:30:07;101167.28;;;5.02;46.33
40155;BME280;25875;48.202;16.334;2023-02-10T09:32:34;101184.75;;;5.15;46.19
40155;BME280;25875;48.202;16.334;2023-02-10T09:35:02;101191.75;;;5.22;45.88
40155;BME280;25875;48.202;16.334;2023-02-10T09:37:29;101175.94;;;5.25;45.99
40155;BME280;25875;48.202;16.334;2023-02-10T09:39:56;101180.31;;;5.29;45.70
40155;BME280;25875;48.202;16.334;2023-02-10T09:42:29;101181.16;;;5.39;44.34
40155;BME280;25875;48.202;16.334;2023-02-10T09:45:09;101188.13;;;5.48;44.53
40155;BME280;25875;48.202;16.334;2023-02-10T09:47:43;101180.16;;;5.61;44.80
40155;BME280;25875;48.202;16.334;2023-02-10T09:50:39;101172.13;;;5.80;43.10
40155;BME280;25875;48.202;16.334;2023-02-10T09:53:12;101174.66;;;5.93;44.56
40155;BME280;25875;48.202;16.334;2023-02-10T09:55:41;101179.88;;;6.02;44.57
40155;BME280;25875;48.202;16.334;2023-02-10T09:58:21;101172.75;;;6.14;42.74
40155;BME280;25875;48.202;16.334;2023-02-10T10:00:53;101170.00;;;6.26;43.73
40155;BME280;25875;48.202;16.334;2023-02-10T10:03:25;101161.13;;;6.39;43.61
40155;BME280;25875;48.202;16.334;2023-02-10T10:06:00;101157.47;;;6.52;43.26
40155;BME280;25875;48.202;16.334;2023-02-10T10:08:36;101152.88;;;6.72;42.96
40155;BME280;25875;48.202;16.334;2023-02-10T10:11:19;101142.19;;;6.88;41.89
40155;BME280;25875;48.202;16.334;2023-02-10T10:13:48;101157.81;;;7.03;43.44
40155;BME280;25875;48.202;16.334;2023-02-10T10:16:21;101155.16;;;7.04;42.09
40155;BME280;25875;48.202;16.334;2023-02-10T10:19:01;101151.72;;;6.99;40.68
40155;BME280;25875;48.202;16.334;2023-02-10T10:21:36;101155.28;;;6.95;41.08
40155;BME280;25875;48.202;16.334;2023-02-10T10:24:15;101135.97;;;6.93;41.95
40155;BME280;25875;48.202;16.334;2023-02-10T10:26:54;101115.03;;;6.81;42.12
40155;BME280;25875;48.202;16.334;2023-02-10T10:29:34;101100.88;;;6.90;41.58
40155;BME280;25875;48.202;16.334;2023-02-10T10:32:13;101118.13;;;7.14;41.18
40155;BME280;25875;48.202;16.334;2023-02-10T10:34:45;101113.66;;;7.20;42.71
40155;BME280;25875;48.202;16.334;2023-02-10T10:37:20;101112.66;;;7.29;42.19
40155;BME280;25875;48.202;16.334;2023-02-10T10:39:49;101124.78;;;7.45;42.25
40155;BME280;25875;48.202;16.334;2023-02-10T10:42:22;101117.69;;;7.49;41.40
40155;BME280;25875;48.202;16.334;2023-02-10T10:44:52;101110.72;;;7.45;41.79
40155;BME280;25875;48.202;16.334;2023-02-10T10:47:29;101124.84;;;7.39;39.54
40155;BME280;25875;48.202;16.334;2023-02-10T10:50:00;101124.03;;;7.35;41.93
40155;BME280;25875;48.202;16.334;2023-02-10T10:52:32;101066.50;;;6.97;40.48
40155;BME280;25875;48.202;16.334;2023-02-10T10:55:04;101102.75;;;7.48;41.10
40155;BME280;25875;48.202;16.334;2023-02-10T10:57:32;101113.13;;;7.60;41.22
40155;BME280;25875;48.202;16.334;2023-02-10T11:00:05;101099.94;;;7.60;39.08
40155;BME280;25875;48.202;16.334;2023-02-10T11:02:39;101086.78;;;7.57;40.83
40155;BME280;25875;48.202;16.334;2023-02-10T11:05:17;101096.50;;;7.53;39.83
40155;BME280;25875;48.202;16.334;2023-02-10T11:07:48;101087.59;;;7.60;39.49
40155;BME280;25875;48.202;16.334;2023-02-10T11:10:22;101074.28;;;7.68;38.11
40155;BME280;25875;48.202;16.334;2023-02-10T11:12:50;101065.53;;;7.66;40.00
40155;BME280;25875;48.202;16.334;2023-02-10T11:15:31;101068.84;;;7.79;37.00
40155;BME280;25875;48.202;16.334;2023-02-10T11:18:00;101060.88;;;7.82;40.08
40155;BME280;25875;48.202;16.334;2023-02-10T11:20:29;101033.75;;;7.72;39.37
40155;BME280;25875;48.202;16.334;2023-02-10T11:22:59;101016.38;;;7.59;38.63
40155;BME280;25875;48.202;16.334;2023-02-10T11:25:29;101066.91;;;7.88;38.39
40155;BME280;25875;48.202;16.334;2023-02-10T11:27:57;101059.78;;;7.93;38.87
40155;BME280;25875;48.202;16.334;2023-02-10T11:30:26;101058.88;;;7.94;38.62
40155;BME280;25875;48.202;16.334;2023-02-10T11:32:54;101046.47;;;7.99;38.73
40155;BME280;25875;48.202;16.334;2023-02-10T11:35:21;101045.53;;;8.03;37.22
40155;BME280;25875;48.202;16.334;2023-02-10T11:37:53;101041.03;;;8.09;36.62
40155;BME280;25875;48.202;16.334;2023-02-10T11:40:24;101020.84;;;8.05;37.02
40155;BME280;25875;48.202;16.334;2023-02-10T11:42:54;101040.75;;;8.24;37.69
40155;BME280;25875;48.202;16.334;2023-02-10T11:45:23;101047.81;;;8.22;37.35
40155;BME280;25875;48.202;16.334;2023-02-10T11:48:00;101035.59;;;8.18;33.91
40155;BME280;25875;48.202;16.334;2023-02-10T11:50:30;101039.97;;;8.19;37.35
40155;BME280;25875;48.202;16.334;2023-02-10T11:52:57;101047.81;;;8.22;37.10
40155;BME280;25875;48.202;16.334;2023-02-10T11:55:33;101045.22;;;8.20;35.69
40155;BME280;25875;48.202;16.334;2023-02-10T11:58:18;101054.94;;;8.18;34.46
40155;BME280;25875;48.202;16.334;2023-02-10T12:01:15;101059.31;;;8.19;35.73
40155;BME280;25875;48.202;16.334;2023-02-10T12:03:54;101050.66;;;8.11;34.06
40155;BME280;25875;48.202;16.334;2023-02-10T12:06:25;101068.22;;;8.14;36.77
40155;BME280;25875;48.202;16.334;2023-02-10T12:09:02;101046.09;;;8.21;35.22
40155;BME280;25875;48.202;16.334;2023-02-10T12:11:39;100981.63;;;7.85;34.49
40155;BME280;25875;48.202;16.334;2023-02-10T12:14:31;101053.13;;;8.20;32.83
40155;BME280;25875;48.202;16.334;2023-02-10T12:17:23;101048.66;;;8.24;32.69
40155;BME280;25875;48.202;16.334;2023-02-10T12:19:59;101047.84;;;8.20;34.64
40155;BME280;25875;48.202;16.334;2023-02-10T12:22:35;101038.16;;;8.21;33.11
40155;BME280;25875;48.202;16.334;2023-02-10T12:25:15;101060.13;;;8.23;33.30
40155;BME280;25875;48.202;16.334;2023-02-10T12:27:54;101008.66;;;7.97;33.87
40155;BME280;25875;48.202;16.334;2023-02-10T12:30:33;101040.03;;;8.14;33.95
40155;BME280;25875;48.202;16.334;2023-02-10T12:33:16;100947.91;;;7.53;33.60
40155;BME280;25875;48.202;16.334;2023-02-10T12:35:50;101050.75;;;8.07;35.46
40155;BME280;25875;48.202;16.334;2023-02-10T12:38:36;101045.63;;;7.97;33.49
40155;BME280;25875;48.202;16.334;2023-02-10T12:41:09;101046.66;;;7.89;32.14
40155;BME280;25875;48.202;16.334;2023-02-10T12:44:00;101049.34;;;7.87;34.09
40155;BME280;25875;48.202;16.334;2023-02-10T12:46:36;101056.34;;;7.88;34.65
40155;BME280;25875;48.202;16.334;2023-02-10T12:49:12;101045.03;;;7.82;35.25
40155;BME280;25875;48.202;16.334;2023-02-10T12:51:51;101041.69;;;7.72;33.91
40155;BME280;25875;48.202;16.334;2023-02-10T12:54:24;101047.03;;;7.67;35.67
40155;BME280;25875;48.202;16.334;2023-02-10T12:56:56;101042.31;;;7.86;37.46
40155;BME280;25875;48.202;16.334;2023-02-10T12:59:28;101041.28;;;7.95;37.61
40155;BME280;25875;48.202;16.334;2023-02-10T13:01:59;101040.25;;;8.03;36.96